createdAt,value
2022-12-27T00:00:40.020Z,76.59
2022-12-27T00:04:02.822Z,76.74
2022-12-27T00:07:06.726Z,76.47
2022-12-27T00:10:12.584Z,76.50
2022-12-27T00:13:15.760Z,76.67
2022-12-27T00:16:21.104Z,76.67
2022-12-27T00:19:24.394Z,76.49
2022-12-27T00:22:27.566Z,76.66
2022-12-27T00:25:30.760Z,76.67
2022-12-27T00:28:35.201Z,76.47
2022-12-27T00:31:40.263Z,76.67
2022-12-27T00:34:43.555Z,76.70
2022-12-27T00:37:46.750Z,76.65
2022-12-27T00:40:50.008Z,76.61
2022-12-27T00:43:53.584Z,76.68
2022-12-27T00:46:56.869Z,76.58
2022-12-27T00:50:00.146Z,76.56
2022-12-27T00:53:03.705Z,76.50
2022-12-27T00:56:18.257Z,76.61
2022-12-27T00:59:21.588Z,76.56
2022-12-27T01:02:26.127Z,76.47
2022-12-27T01:05:29.454Z,76.33
2022-12-27T01:08:32.748Z,76.51
2022-12-27T01:11:36.009Z,76.52
2022-12-27T01:14:39.191Z,76.59
2022-12-27T01:17:42.718Z,76.84
2022-12-27T01:20:45.934Z,76.92
2022-12-27T01:23:50.164Z,76.83
2022-12-27T01:26:53.400Z,77.03
2022-12-27T01:29:56.636Z,76.94
2022-12-27T01:32:59.828Z,76.96
2022-12-27T01:36:10.035Z,77.08
2022-12-27T01:39:13.960Z,76.93
2022-12-27T01:42:37.185Z,76.79
2022-12-27T01:45:40.599Z,76.96
2022-12-27T01:48:45.100Z,76.80
2022-12-27T01:51:48.299Z,76.95
2022-12-27T01:54:53.332Z,76.65
2022-12-27T01:58:03.219Z,76.89
2022-12-27T02:01:12.411Z,76.71
2022-12-27T02:04:19.270Z,76.78
2022-12-27T02:07:30.125Z,76.81
2022-12-27T02:10:34.742Z,76.83
2022-12-27T02:13:42.429Z,76.79
2022-12-27T02:16:47.030Z,76.79
2022-12-27T02:20:10.947Z,76.90
2022-12-27T02:23:51.634Z,76.84
2022-12-27T02:27:07.925Z,76.78
2022-12-27T02:30:13.459Z,76.80
2022-12-27T02:33:22.433Z,76.83
2022-12-27T02:36:30.356Z,76.98
2022-12-27T02:39:37.839Z,76.94
2022-12-27T02:42:59.388Z,76.87
2022-12-27T02:46:41.234Z,76.71
2022-12-27T02:50:02.806Z,76.43
2022-12-27T02:53:47.298Z,76.35
2022-12-27T02:57:13.912Z,76.40
2022-12-27T03:00:42.334Z,76.51
2022-12-27T03:03:51.143Z,76.38
2022-12-27T03:07:12.439Z,76.35
2022-12-27T03:10:43.443Z,76.23
2022-12-27T03:14:42.065Z,76.22
2022-12-27T03:17:53.355Z,75.90
2022-12-27T03:21:18.353Z,75.83
2022-12-27T03:24:45.277Z,75.91
2022-12-27T03:28:09.467Z,75.77
2022-12-27T03:31:36.983Z,75.67
2022-12-27T03:34:45.812Z,75.67
2022-12-27T03:38:04.007Z,75.66
2022-12-27T03:41:27.930Z,75.64
2022-12-27T03:44:31.274Z,75.81
2022-12-27T03:47:43.013Z,75.65
2022-12-27T03:50:57.184Z,75.78
2022-12-27T03:54:07.330Z,75.81
2022-12-27T03:57:19.774Z,75.67
2022-12-27T04:00:22.794Z,75.58
2022-12-27T04:03:26.393Z,75.48
2022-12-27T04:06:29.753Z,75.56
2022-12-27T04:09:51.614Z,75.18
2022-12-27T04:13:13.376Z,75.31
2022-12-27T04:16:35.129Z,75.23
2022-12-27T04:19:56.852Z,75.06
2022-12-27T04:23:18.592Z,75.02
2022-12-27T04:26:40.295Z,75.08
2022-12-27T04:30:02.151Z,74.65
2022-12-27T04:33:24.072Z,74.85
2022-12-27T04:36:27.310Z,74.47
2022-12-27T04:39:30.563Z,74.62
2022-12-27T04:42:52.651Z,74.76
2022-12-27T04:46:14.449Z,74.71
2022-12-27T04:49:45.442Z,74.70
2022-12-27T04:53:07.299Z,74.71
2022-12-27T04:56:10.500Z,74.60
2022-12-27T04:59:32.535Z,74.66
2022-12-27T05:02:36.411Z,74.54
2022-12-27T05:05:42.054Z,74.53
2022-12-27T05:09:03.767Z,74.64
2022-12-27T05:12:28.156Z,74.30
2022-12-27T05:15:31.372Z,74.22
2022-12-27T05:18:34.542Z,74.05
2022-12-27T05:21:38.767Z,74.08
2022-12-27T05:25:00.433Z,73.73
2022-12-27T05:28:06.318Z,73.66
2022-12-27T05:31:10.085Z,73.59
2022-12-27T05:34:13.366Z,73.49
2022-12-27T05:37:16.535Z,73.46
2022-12-27T05:40:19.763Z,72.95
2022-12-27T05:43:22.928Z,73.13
2022-12-27T05:46:26.117Z,73.21
2022-12-27T05:49:29.476Z,72.98
2022-12-27T05:52:37.571Z,73.01
2022-12-27T05:55:43.979Z,72.77
2022-12-27T05:58:47.820Z,72.72
2022-12-27T06:01:51.907Z,72.60
2022-12-27T06:04:55.243Z,72.59
2022-12-27T06:07:58.748Z,72.56
2022-12-27T06:11:13.905Z,72.55
2022-12-27T06:14:17.144Z,72.61
2022-12-27T06:17:20.355Z,72.69
2022-12-27T06:20:23.593Z,72.74
2022-12-27T06:23:26.778Z,72.40
2022-12-27T06:26:30.497Z,72.43
2022-12-27T06:29:34.385Z,72.41
2022-12-27T06:32:37.662Z,72.34
2022-12-27T06:35:40.857Z,72.09
2022-12-27T06:38:44.270Z,72.06
2022-12-27T06:41:47.511Z,71.99
2022-12-27T06:44:50.698Z,71.94
2022-12-27T06:47:53.923Z,71.90
2022-12-27T06:50:57.371Z,71.93
2022-12-27T06:54:00.618Z,71.94
2022-12-27T06:57:03.847Z,72.28
2022-12-27T07:00:08.078Z,72.34
2022-12-27T07:03:11.421Z,72.24
2022-12-27T07:06:14.723Z,72.04
2022-12-27T07:09:18.169Z,71.89
2022-12-27T07:12:23.025Z,71.86
2022-12-27T07:15:26.254Z,71.78
2022-12-27T07:18:32.996Z,72.20
2022-12-27T07:21:37.260Z,72.04
2022-12-27T07:24:40.509Z,71.77
2022-12-27T07:27:43.751Z,71.72
2022-12-27T07:30:46.956Z,71.46
2022-12-27T07:33:50.726Z,71.27
2022-12-27T07:36:53.955Z,71.49
2022-12-27T07:39:57.162Z,71.33
2022-12-27T07:43:00.465Z,71.50
2022-12-27T07:46:25.561Z,71.31
2022-12-27T07:49:28.864Z,71.09
2022-12-27T07:52:33.644Z,71.09
2022-12-27T07:55:36.917Z,70.86
2022-12-27T07:58:42.878Z,71.02
2022-12-27T08:02:04.770Z,71.05
2022-12-27T08:05:08.884Z,70.84
2022-12-27T08:08:16.001Z,70.61
2022-12-27T08:11:20.431Z,70.86
2022-12-27T08:14:23.755Z,71.01
2022-12-27T08:17:28.027Z,70.53
2022-12-27T08:20:31.599Z,70.55
2022-12-27T08:23:34.835Z,70.75
2022-12-27T08:26:38.129Z,70.59
2022-12-27T08:29:41.396Z,70.42
2022-12-27T08:32:44.620Z,70.37
2022-12-27T08:35:53.137Z,70.20
2022-12-27T08:38:56.653Z,70.21
2022-12-27T08:41:59.931Z,70.12
2022-12-27T08:45:03.604Z,70.05
2022-12-27T08:48:07.716Z,69.99
2022-12-27T08:51:13.860Z,69.88
2022-12-27T08:54:19.674Z,69.80
2022-12-27T08:57:22.977Z,69.56
2022-12-27T09:00:27.492Z,69.34
2022-12-27T09:03:31.418Z,69.36
2022-12-27T09:06:34.727Z,69.19
2022-12-27T09:09:38.127Z,69.10
2022-12-27T09:12:41.680Z,68.98
2022-12-27T09:15:45.222Z,68.81
2022-12-27T09:18:53.882Z,68.75
2022-12-27T09:21:57.140Z,68.57
2022-12-27T09:25:00.409Z,68.48
2022-12-27T09:28:04.045Z,68.36
2022-12-27T09:31:09.730Z,68.32
2022-12-27T09:34:13.155Z,67.98
2022-12-27T09:37:17.891Z,67.95
2022-12-27T09:40:21.509Z,68.07
2022-12-27T09:43:54.138Z,67.90
2022-12-27T09:47:27.132Z,67.61
2022-12-27T09:50:54.955Z,67.65
2022-12-27T09:54:37.422Z,67.47
2022-12-27T09:57:43.077Z,67.31
2022-12-27T10:00:46.720Z,66.99
2022-12-27T10:03:56.564Z,66.90
2022-12-27T10:07:25.747Z,66.81
2022-12-27T10:10:50.469Z,67.14
2022-12-27T10:14:01.591Z,67.24
2022-12-27T10:18:10.403Z,67.49
2022-12-27T10:21:27.659Z,66.36
2022-12-27T10:24:47.824Z,66.15
2022-12-27T10:27:58.645Z,65.93
2022-12-27T10:31:04.018Z,65.77
2022-12-27T10:34:15.162Z,65.57
2022-12-27T10:37:21.502Z,65.29
2022-12-27T10:40:35.762Z,64.90
2022-12-27T10:43:42.475Z,64.95
2022-12-27T10:46:52.190Z,64.93
2022-12-27T10:50:11.704Z,64.83
2022-12-27T10:53:41.232Z,64.77
2022-12-27T10:56:45.045Z,64.45
2022-12-27T11:00:14.428Z,64.17
2022-12-27T11:03:19.277Z,63.91
2022-12-27T11:06:26.242Z,63.83
2022-12-27T11:09:37.424Z,63.66
2022-12-27T11:12:55.981Z,63.38
2022-12-27T11:15:59.440Z,63.23
2022-12-27T11:19:04.353Z,62.88
2022-12-27T11:22:09.475Z,62.66
2022-12-27T11:25:14.993Z,62.50
2022-12-27T11:28:55.801Z,62.32
2022-12-27T11:32:08.116Z,62.46
2022-12-27T11:35:22.204Z,62.17
2022-12-27T11:38:29.462Z,61.87
2022-12-27T11:41:52.238Z,61.91
2022-12-27T11:48:28.735Z,61.48
2022-12-27T11:51:40.211Z,61.30
2022-12-27T11:55:21.599Z,61.33
2022-12-27T11:58:24.909Z,61.16
2022-12-27T12:01:57.018Z,60.88
2022-12-27T12:05:15.606Z,61.00
2022-12-27T12:09:23.988Z,60.98
2022-12-27T12:13:06.180Z,61.01
2022-12-27T12:16:18.225Z,60.93
2022-12-27T12:19:21.606Z,61.03
2022-12-27T12:36:26.437Z,60.38
2022-12-27T12:43:12.436Z,60.39
2022-12-27T12:46:24.660Z,60.45
2022-12-27T12:50:06.565Z,60.34
2022-12-27T12:53:29.433Z,60.23
2022-12-27T12:56:32.999Z,60.20
2022-12-27T12:59:45.071Z,59.93
2022-12-27T13:03:22.407Z,59.92
2022-12-27T13:06:28.329Z,59.82
2022-12-27T13:10:07.043Z,59.83
2022-12-27T13:13:26.589Z,60.07
2022-12-27T13:17:13.839Z,60.24
2022-12-27T13:20:48.780Z,60.21
2022-12-27T13:24:02.103Z,60.33
2022-12-27T13:27:11.453Z,60.34
2022-12-27T13:30:24.433Z,60.36
2022-12-27T13:34:08.467Z,60.15
2022-12-27T13:37:24.376Z,60.05
2022-12-27T13:40:59.716Z,60.00
2022-12-27T13:44:46.518Z,60.04
2022-12-27T13:48:23.845Z,59.91
2022-12-27T13:59:49.870Z,59.76
2022-12-27T14:03:03.704Z,59.84
2022-12-27T14:06:55.946Z,59.87
2022-12-27T14:11:31.966Z,59.97
2022-12-27T14:15:43.713Z,59.75
2022-12-27T14:19:21.967Z,59.98
2022-12-27T14:22:56.611Z,59.97
2022-12-27T14:27:17.265Z,60.09
2022-12-27T14:30:32.802Z,59.98
2022-12-27T14:34:37.404Z,59.80
2022-12-27T14:38:14.298Z,59.97
2022-12-27T14:41:20.333Z,59.85
2022-12-27T14:44:59.921Z,59.92
2022-12-27T14:48:34.858Z,59.93
2022-12-27T14:52:42.666Z,59.98
2022-12-27T14:56:07.502Z,59.84
2022-12-27T14:59:13.405Z,59.86
2022-12-27T15:02:45.436Z,59.69
2022-12-27T15:05:55.574Z,59.67
2022-12-27T15:09:32.195Z,59.91
2022-12-27T15:13:00.531Z,59.86
2022-12-27T15:16:16.011Z,59.78
2022-12-27T15:19:49.601Z,59.64
2022-12-27T15:23:05.092Z,59.35
2022-12-27T15:26:17.949Z,59.68
2022-12-27T15:29:53.455Z,59.61
2022-12-27T15:33:02.482Z,59.59
2022-12-27T15:36:21.098Z,59.66
2022-12-27T15:39:33.374Z,59.57
2022-12-27T15:42:54.178Z,59.54
2022-12-27T15:46:00.304Z,59.52
2022-12-27T15:49:15.350Z,59.44
2022-12-27T15:52:36.657Z,59.32
2022-12-27T15:56:27.116Z,59.50
2022-12-27T15:59:36.776Z,59.63
2022-12-27T16:02:49.529Z,59.37
2022-12-27T16:05:54.221Z,59.37
2022-12-27T16:09:22.106Z,59.61
2022-12-27T16:12:39.812Z,59.51
2022-12-27T16:15:50.065Z,59.38
2022-12-27T16:28:32.543Z,59.36
2022-12-27T16:35:32.940Z,59.42
2022-12-27T16:39:10.236Z,59.45
2022-12-27T16:42:27.011Z,59.46
2022-12-27T16:45:39.334Z,59.49
2022-12-27T16:49:08.595Z,59.62
2022-12-27T16:57:26.939Z,59.58
2022-12-27T17:05:15.351Z,59.60
2022-12-27T17:08:31.131Z,59.44
2022-12-27T17:12:11.282Z,59.50
2022-12-27T17:15:24.824Z,59.58
2022-12-27T17:23:44.672Z,59.58
2022-12-27T17:42:40.941Z,59.17
2022-12-27T17:45:54.912Z,59.13
2022-12-27T17:48:58.906Z,59.17
2022-12-27T17:52:21.237Z,59.48
2022-12-27T17:55:53.725Z,59.41
2022-12-27T17:59:09.271Z,59.39
2022-12-27T18:02:12.609Z,59.51
2022-12-27T18:05:22.040Z,59.47
2022-12-27T18:08:36.168Z,59.42
2022-12-27T18:11:41.802Z,59.38
2022-12-27T18:14:51.643Z,59.29
2022-12-27T18:18:05.955Z,59.40
2022-12-27T18:21:22.964Z,59.48
2022-12-27T18:24:30.112Z,59.42
2022-12-27T18:27:33.316Z,59.55
2022-12-27T18:30:42.708Z,59.29
2022-12-27T18:34:07.721Z,59.34
2022-12-27T18:37:19.343Z,59.57
2022-12-27T18:40:25.915Z,59.53
2022-12-27T18:43:29.722Z,59.36
2022-12-27T18:46:37.260Z,59.52
2022-12-27T18:49:40.644Z,59.59
2022-12-27T18:52:49.620Z,59.53
2022-12-27T18:56:05.206Z,59.51
2022-12-27T18:59:17.881Z,59.61
2022-12-27T19:02:37.196Z,59.38
2022-12-27T19:05:40.708Z,59.65
2022-12-27T19:08:53.162Z,59.60
2022-12-27T19:11:59.408Z,59.48
2022-12-27T19:15:04.341Z,60.00
2022-12-27T19:18:31.125Z,59.57
2022-12-27T19:21:37.591Z,59.76
2022-12-27T19:24:40.869Z,59.57
2022-12-27T19:28:01.090Z,59.78
2022-12-27T19:31:21.766Z,59.85
2022-12-27T19:34:29.067Z,59.83
2022-12-27T19:37:33.737Z,59.79
2022-12-27T19:40:37.016Z,59.80
2022-12-27T19:43:45.848Z,59.77
2022-12-27T19:46:49.221Z,59.95
2022-12-27T19:49:53.202Z,59.84
2022-12-27T19:52:57.174Z,60.08
2022-12-27T19:56:02.017Z,60.14
2022-12-27T19:59:05.215Z,59.94
2022-12-27T20:02:09.096Z,60.31
2022-12-27T20:05:12.917Z,60.18
2022-12-27T20:08:33.728Z,60.16
2022-12-27T20:11:37.425Z,60.32
2022-12-27T20:14:41.343Z,60.59
2022-12-27T20:17:45.392Z,60.42
2022-12-27T20:21:20.393Z,60.61
2022-12-27T20:24:23.694Z,60.19
2022-12-27T20:27:27.354Z,60.50
2022-12-27T20:30:31.299Z,60.77
2022-12-27T20:33:35.011Z,60.81
2022-12-27T20:36:38.800Z,60.95
2022-12-27T20:39:42.070Z,60.71
2022-12-27T20:42:45.626Z,61.22
2022-12-27T20:45:48.991Z,60.77
2022-12-27T20:48:53.898Z,60.89
2022-12-27T20:51:57.231Z,61.16
2022-12-27T20:55:00.610Z,61.03
2022-12-27T20:58:04.429Z,61.10
2022-12-27T21:01:15.730Z,61.20
2022-12-27T21:04:19.346Z,61.30
2022-12-27T21:07:22.808Z,61.38
2022-12-27T21:10:39.996Z,61.30
2022-12-27T21:13:45.500Z,61.13
2022-12-27T21:16:49.054Z,61.27
2022-12-27T21:19:52.671Z,61.36
2022-12-27T21:22:56.054Z,61.19
2022-12-27T21:26:25.059Z,61.38
2022-12-27T21:29:28.510Z,61.42
2022-12-27T21:32:31.745Z,61.22
2022-12-27T21:35:34.940Z,61.25
2022-12-27T21:38:38.234Z,61.42
2022-12-27T21:41:41.583Z,61.52
2022-12-27T21:44:44.811Z,61.52
2022-12-27T21:47:47.996Z,61.52
2022-12-27T21:50:51.291Z,61.85
2022-12-27T21:53:55.255Z,61.28
2022-12-27T21:56:58.423Z,61.48
2022-12-27T22:00:02.057Z,61.81
2022-12-27T22:03:08.161Z,61.51
2022-12-27T22:06:17.685Z,61.89
2022-12-27T22:09:21.006Z,61.65
2022-12-27T22:12:24.309Z,61.68
2022-12-27T22:15:27.595Z,61.45
2022-12-27T22:18:32.557Z,61.49
2022-12-27T22:21:37.388Z,61.60
2022-12-27T22:24:41.084Z,61.56
2022-12-27T22:27:44.338Z,61.56
2022-12-27T22:30:47.534Z,61.74
2022-12-27T22:33:51.815Z,61.64
2022-12-27T22:36:55.040Z,61.84
2022-12-27T22:39:58.331Z,61.74
2022-12-27T22:43:01.720Z,62.13
2022-12-27T22:46:07.273Z,62.03
2022-12-27T22:49:10.517Z,62.12
2022-12-27T22:52:13.797Z,61.70
2022-12-27T22:55:17.213Z,61.94
2022-12-27T22:58:20.456Z,62.08
2022-12-27T23:01:27.978Z,62.17
2022-12-27T23:04:31.470Z,62.17
2022-12-27T23:08:04.156Z,62.22
2022-12-27T23:11:11.475Z,61.82
2022-12-27T23:14:16.542Z,62.38
2022-12-27T23:17:19.797Z,62.35
2022-12-27T23:20:22.992Z,62.15
2022-12-27T23:23:26.613Z,62.30
2022-12-27T23:26:29.956Z,62.32
2022-12-27T23:29:33.151Z,62.20
2022-12-27T23:32:36.425Z,62.14
2022-12-27T23:35:39.641Z,62.00
2022-12-27T23:38:43.582Z,62.05
2022-12-27T23:41:46.784Z,62.31
2022-12-27T23:44:50.640Z,62.45
2022-12-27T23:47:53.821Z,62.27
2022-12-27T23:50:56.996Z,62.29
2022-12-27T23:54:00.299Z,62.39
2022-12-27T23:57:20.377Z,62.21
